Time;durP1;ratioP1;P1;durP2;ratioP2;P2;SDS_P1;SDS_P2;PMS_P1;PMS_P2;Temp;Humidity;BMP_temperature;BMP_pressure;BME280_temperature;BME280_humidity;BME280_pressure;Samples;Min_cycle;Max_cycle;Signal;HPM_P1;HPM_P2
2022/11/17 00:01:50;;;;;;;8.20;4.10;;;;;;;;;;5008688;28;20038;-42
2022/11/17 00:04:16;;;;;;;7.00;3.60;;;;;;;;;;5010520;28;20021;-43
2022/11/17 00:06:41;;;;;;;10.07;3.72;;;;;;;;;;5004707;28;20030;-46
2022/11/17 00:09:16;;;;;;;9.52;4.72;;;;;;;;;;5007714;28;20062;-44
2022/11/17 00:14:35;;;;;;;11.50;4.07;;;;;;;;;;5008273;28;20605;-46
2022/11/17 00:17:06;;;;;;;8.20;3.92;;;;;;;;;;5001503;28;20550;-43
2022/11/17 00:22:16;;;;;;;8.70;4.30;;;;;;;;;;5010171;28;20045;-43
2022/11/17 00:24:41;;;;;;;7.25;4.53;;;;;;;;;;5008829;28;20030;-42
2022/11/17 00:27:06;;;;;;;13.85;4.28;;;;;;;;;;5007241;28;20101;-43
2022/11/17 00:29:32;;;;;;;11.82;4.43;;;;;;;;;;5010305;28;20080;-42
2022/11/17 00:34:42;;;;;;;7.00;3.72;;;;;;;;;;5011211;28;20060;-41
2022/11/17 00:37:08;;;;;;;9.30;3.85;;;;;;;;;;5006966;28;20053;-42
2022/11/17 00:39:34;;;;;;;12.57;4.10;;;;;;;;;;5010412;28;20065;-42
2022/11/17 00:41:59;;;;;;;6.03;3.47;;;;;;;;;;5009617;28;20073;-43
2022/11/17 00:44:25;;;;;;;7.28;3.92;;;;;;;;;;5015382;28;20034;-42
2022/11/17 00:46:51;;;;;;;7.05;3.72;;;;;;;;;;5006992;28;20046;-42
2022/11/17 00:49:18;;;;;;;8.45;4.00;;;;;;;;;;5013165;28;20434;-42
2022/11/17 00:51:44;;;;;;;7.07;3.67;;;;;;;;;;5016938;28;20057;-41
2022/11/17 00:54:11;;;;;;;8.70;3.53;;;;;;;;;;5014479;28;20050;-44
2022/11/17 00:56:37;;;;;;;6.03;3.55;;;;;;;;;;5013587;28;20038;-42
2022/11/17 00:59:02;;;;;;;7.10;3.70;;;;;;;;;;5010273;28;20038;-42
2022/11/17 01:01:28;;;;;;;5.10;3.42;;;;;;;;;;5024048;28;20037;-42
2022/11/17 01:04:01;;;;;;;6.93;3.55;;;;;;;;;;5012406;28;20133;-44
2022/11/17 01:06:29;;;;;;;6.93;3.30;;;;;;;;;;5006101;28;20029;-42
2022/11/17 01:08:54;;;;;;;5.97;3.25;;;;;;;;;;5011634;28;20084;-43
2022/11/17 01:11:19;;;;;;;8.95;3.20;;;;;;;;;;5013458;28;20049;-42
2022/11/17 01:13:46;;;;;;;7.65;3.08;;;;;;;;;;5014211;28;20026;-42
2022/11/17 01:16:19;;;;;;;4.50;2.88;;;;;;;;;;5013318;28;20022;-42
2022/11/17 01:18:46;;;;;;;6.88;2.80;;;;;;;;;;5010446;28;20056;-42
2022/11/17 01:21:19;;;;;;;8.85;3.05;;;;;;;;;;5010850;28;20096;-42
2022/11/17 01:23:45;;;;;;;6.85;3.10;;;;;;;;;;5012141;28;20506;-42
2022/11/17 01:26:13;;;;;;;6.68;3.35;;;;;;;;;;5012921;28;20079;-42
2022/11/17 01:28:40;;;;;;;10.10;3.28;;;;;;;;;;5011062;28;20022;-42
2022/11/17 01:31:14;;;;;;;3.70;2.97;;;;;;;;;;5012925;28;20025;-42
2022/11/17 01:33:40;;;;;;;4.18;2.63;;;;;;;;;;5012253;28;20044;-42
2022/11/17 01:36:10;;;;;;;6.10;3.15;;;;;;;;;;5002588;28;20038;-41
2022/11/17 01:38:35;;;;;;;7.53;3.08;;;;;;;;;;5007171;28;20596;-42
2022/11/17 01:41:04;;;;;;;8.90;3.15;;;;;;;;;;5013466;28;20088;-43
2022/11/17 01:43:44;;;;;;;8.90;3.45;;;;;;;;;;5013326;28;20054;-42
2022/11/17 01:46:32;;;;;;;6.82;3.28;;;;;;;;;;5010848;28;20025;-44
2022/11/17 01:49:22;;;;;;;7.65;4.25;;;;;;;;;;5010340;28;20073;-45
2022/11/17 01:51:54;;;;;;;5.93;2.92;;;;;;;;;;5018175;28;20045;-42
2022/11/17 01:54:23;;;;;;;4.88;3.42;;;;;;;;;;5012157;28;20030;-42
2022/11/17 01:56:52;;;;;;;9.63;3.38;;;;;;;;;;5012564;28;20033;-42
2022/11/17 01:59:24;;;;;;;13.43;3.58;;;;;;;;;;5011579;28;20037;-42
2022/11/17 02:01:55;;;;;;;4.05;2.33;;;;;;;;;;5013018;28;20033;-42
2022/11/17 02:04:35;;;;;;;6.20;3.33;;;;;;;;;;5013319;28;20148;-41
2022/11/17 02:07:08;;;;;;;6.93;3.20;;;;;;;;;;5016290;28;20034;-43
2022/11/17 02:09:37;;;;;;;10.93;3.15;;;;;;;;;;5010265;28;20172;-42
2022/11/17 02:12:06;;;;;;;9.98;3.80;;;;;;;;;;5011371;28;20038;-41
2022/11/17 02:14:31;;;;;;;6.05;3.20;;;;;;;;;;5013054;28;20096;-42
2022/11/17 02:16:57;;;;;;;3.97;3.05;;;;;;;;;;5012694;28;20117;-42
2022/11/17 02:19:26;;;;;;;11.65;2.90;;;;;;;;;;5012257;28;20050;-42
2022/11/17 02:22:22;;;;;;;6.88;3.30;;;;;;;;;;5017932;28;20037;-44
2022/11/17 02:25:26;;;;;;;4.55;2.80;;;;;;;;;;5010749;28;20030;-41
2022/11/17 02:28:19;;;;;;;4.95;2.97;;;;;;;;;;5009026;28;20050;-42
2022/11/17 02:30:52;;;;;;;10.38;3.45;;;;;;;;;;5004998;28;20045;-42
2022/11/17 02:33:41;;;;;;;5.00;3.40;;;;;;;;;;5012492;28;20080;-41
2022/11/17 02:36:19;;;;;;;5.50;3.10;;;;;;;;;;5001315;28;20478;-47
2022/11/17 02:39:29;;;;;;;5.05;3.33;;;;;;;;;;5010177;28;20518;-42
2022/11/17 02:42:02;;;;;;;7.45;3.45;;;;;;;;;;5008862;28;20042;-41
2022/11/17 02:44:53;;;;;;;6.05;3.13;;;;;;;;;;5013486;28;20030;-41
2022/11/17 02:47:28;;;;;;;4.95;3.30;;;;;;;;;;5005672;28;20042;-42
2022/11/17 02:50:02;;;;;;;5.53;3.28;;;;;;;;;;5007783;28;20441;-43
2022/11/17 02:52:28;;;;;;;6.40;2.97;;;;;;;;;;5014355;28;20498;-42
2022/11/17 02:55:06;;;;;;;5.38;3.17;;;;;;;;;;5012045;28;20033;-41
2022/11/17 02:57:37;;;;;;;10.90;3.63;;;;;;;;;;5011400;28;20391;-45
2022/11/17 03:00:08;;;;;;;3.53;2.77;;;;;;;;;;5006377;28;20037;-42
2022/11/17 03:02:37;;;;;;;9.73;3.38;;;;;;;;;;5010822;28;20108;-41
2022/11/17 03:05:26;;;;;;;5.50;2.97;;;;;;;;;;5013499;28;20111;-41
2022/11/17 03:08:20;;;;;;;9.85;3.80;;;;;;;;;;5011479;28;20062;-45
2022/11/17 03:11:05;;;;;;;6.45;3.50;;;;;;;;;;5011825;28;20070;-41
2022/11/17 03:13:54;;;;;;;6.43;3.55;;;;;;;;;;5009025;28;20544;-43
2022/11/17 03:16:44;;;;;;;6.45;3.30;;;;;;;;;;5011365;28;20037;-41
2022/11/17 03:19:17;;;;;;;9.13;2.97;;;;;;;;;;5007830;28;20040;-43
2022/11/17 03:21:45;;;;;;;4.43;2.72;;;;;;;;;;4997451;28;20049;-43
2022/11/17 03:24:17;;;;;;;5.70;3.40;;;;;;;;;;5011883;28;20030;-42
2022/11/17 03:26:49;;;;;;;7.18;3.10;;;;;;;;;;5009346;28;20034;-43
2022/11/17 03:29:18;;;;;;;5.97;3.00;;;;;;;;;;5010825;28;20073;-42
2022/11/17 03:31:46;;;;;;;6.25;2.80;;;;;;;;;;4999204;28;20038;-41
2022/11/17 03:34:15;;;;;;;5.47;2.70;;;;;;;;;;5011033;28;20029;-42
2022/11/17 03:36:46;;;;;;;5.30;3.10;;;;;;;;;;5017568;28;20511;-42
2022/11/17 03:39:15;;;;;;;6.93;3.33;;;;;;;;;;5007875;28;20045;-42
2022/11/17 03:41:44;;;;;;;6.15;3.08;;;;;;;;;;5010840;28;20049;-42
2022/11/17 03:44:13;;;;;;;7.60;2.83;;;;;;;;;;5023254;28;20073;-42
2022/11/17 03:46:42;;;;;;;8.70;2.67;;;;;;;;;;5007566;28;20124;-41
2022/11/17 03:49:19;;;;;;;7.85;2.83;;;;;;;;;;5007325;28;20037;-42
2022/11/17 03:51:44;;;;;;;7.78;3.13;;;;;;;;;;5015985;28;20180;-42
2022/11/17 03:54:11;;;;;;;7.28;2.55;;;;;;;;;;5013210;28;20105;-42
2022/11/17 03:56:54;;;;;;;11.27;2.60;;;;;;;;;;5006551;28;20038;-42
2022/11/17 03:59:19;;;;;;;;;;;;;;;;;;5009858;28;20033;-41
2022/11/17 04:01:44;;;;;;;6.20;2.58;;;;;;;;;;5009875;28;20392;-42
2022/11/17 04:04:18;;;;;;;4.22;2.40;;;;;;;;;;5008657;28;20463;-43
2022/11/17 04:06:43;;;;;;;5.97;2.67;;;;;;;;;;5010331;28;20026;-42
2022/11/17 04:09:08;;;;;;;4.32;2.53;;;;;;;;;;5009374;28;20033;-42
2022/11/17 04:17:02;;;;;;;8.43;2.90;;;;;;;;;;5010145;28;20052;-45
2022/11/17 04:19:27;;;;;;;5.72;2.85;;;;;;;;;;5008492;28;20520;-42
2022/11/17 04:21:52;;;;;;;5.47;2.28;;;;;;;;;;5008747;28;20044;-44
2022/11/17 04:24:18;;;;;;;4.90;2.42;;;;;;;;;;5010709;28;20026;-44
2022/11/17 04:29:27;;;;;;;3.80;2.20;;;;;;;;;;5002491;28;20065;-42
2022/11/17 04:31:53;;;;;;;4.18;2.45;;;;;;;;;;5006146;28;20503;-41
2022/11/17 04:34:18;;;;;;;6.22;3.75;;;;;;;;;;5010552;28;20038;-42
2022/11/17 04:36:43;;;;;;;8.15;2.80;;;;;;;;;;5008484;28;20069;-42
2022/11/17 04:39:11;;;;;;;4.57;2.80;;;;;;;;;;5009035;28;20160;-43
2022/11/17 04:42:00;;;;;;;8.38;3.33;;;;;;;;;;5009926;28;20379;-42
2022/11/17 04:44:27;;;;;;;6.95;2.95;;;;;;;;;;5008417;28;20081;-42
2022/11/17 04:46:54;;;;;;;5.18;2.95;;;;;;;;;;5009986;28;20038;-41
2022/11/17 04:49:21;;;;;;;4.63;2.97;;;;;;;;;;5009341;28;20045;-42
2022/11/17 04:51:46;;;;;;;5.38;3.13;;;;;;;;;;5015378;28;20045;-42
2022/11/17 04:54:15;;;;;;;9.10;3.20;;;;;;;;;;5005293;28;20022;-43
2022/11/17 04:56:41;;;;;;;7.78;2.75;;;;;;;;;;5010288;28;20572;-42
2022/11/17 04:59:07;;;;;;;4.60;2.97;;;;;;;;;;5008970;28;20034;-42
2022/11/17 05:01:33;;;;;;;5.18;3.40;;;;;;;;;;5008145;28;20582;-42
2022/11/17 05:04:01;;;;;;;4.00;2.70;;;;;;;;;;5010319;28;20037;-42
2022/11/17 05:06:28;;;;;;;4.50;2.85;;;;;;;;;;5009871;28;20131;-42
2022/11/17 05:08:55;;;;;;;7.80;2.70;;;;;;;;;;5003206;28;20052;-42
2022/11/17 05:14:06;;;;;;;6.78;2.72;;;;;;;;;;5010685;28;20064;-42
2022/11/17 05:19:22;;;;;;;4.72;2.60;;;;;;;;;;5009900;28;20495;-41
2022/11/17 05:21:47;;;;;;;4.20;2.03;;;;;;;;;;5005161;28;20491;-45
2022/11/17 05:24:13;;;;;;;6.20;2.75;;;;;;;;;;5009165;28;20456;-42
2022/11/17 05:26:40;;;;;;;4.05;2.40;;;;;;;;;;5008973;28;20037;-42
2022/11/17 05:29:07;;;;;;;5.38;2.60;;;;;;;;;;5012451;28;20184;-44
2022/11/17 05:31:33;;;;;;;3.53;2.80;;;;;;;;;;5008988;28;20041;-43
2022/11/17 05:33:59;;;;;;;4.88;2.30;;;;;;;;;;5013450;28;20475;-42
2022/11/17 05:36:25;;;;;;;3.80;2.55;;;;;;;;;;5013514;28;20053;-42
2022/11/17 05:38:51;;;;;;;2.90;2.35;;;;;;;;;;5021223;28;20066;-42
2022/11/17 05:41:17;;;;;;;5.68;2.70;;;;;;;;;;5009826;28;20426;-47
2022/11/17 05:43:43;;;;;;;4.95;2.60;;;;;;;;;;5006785;28;20034;-42
2022/11/17 05:46:09;;;;;;;5.72;2.30;;;;;;;;;;5010226;28;20505;-42
2022/11/17 05:48:34;;;;;;;7.78;2.20;;;;;;;;;;5017163;28;20038;-42
2022/11/17 05:51:00;;;;;;;3.63;2.15;;;;;;;;;;5003564;28;20025;-42
2022/11/17 05:53:27;;;;;;;9.25;2.42;;;;;;;;;;5016161;28;20034;-43
2022/11/17 05:56:27;;;;;;;7.70;2.17;;;;;;;;;;5007872;28;20520;-42
2022/11/17 05:58:58;;;;;;;7.55;2.25;;;;;;;;;;5007321;28;20497;-41
2022/11/17 06:01:23;;;;;;;6.85;2.10;;;;;;;;;;5004417;28;20026;-42
2022/11/17 06:03:55;;;;;;;7.20;2.40;;;;;;;;;;5012932;28;20113;-42
2022/11/17 06:06:21;;;;;;;4.82;2.40;;;;;;;;;;5002263;28;20037;-42
2022/11/17 06:08:47;;;;;;;3.33;1.73;;;;;;;;;;5007868;28;20021;-42
2022/11/17 06:11:13;;;;;;;3.03;1.80;;;;;;;;;;5014362;28;20386;-43
2022/11/17 06:13:38;;;;;;;6.68;2.63;;;;;;;;;;5008321;28;20101;-42
2022/11/17 06:16:06;;;;;;;7.10;2.30;;;;;;;;;;5012621;28;20651;-42
2022/11/17 06:18:55;;;;;;;5.97;2.28;;;;;;;;;;5004771;28;20100;-42
2022/11/17 06:21:21;;;;;;;4.40;2.50;;;;;;;;;;5005442;28;20026;-41
2022/11/17 06:23:47;;;;;;;5.82;2.30;;;;;;;;;;5012388;28;20481;-42
2022/11/17 06:26:14;;;;;;;5.90;2.30;;;;;;;;;;5011711;28;20084;-42
2022/11/17 06:28:42;;;;;;;7.45;2.10;;;;;;;;;;5004548;28;20030;-41
2022/11/17 06:31:07;;;;;;;4.07;2.17;;;;;;;;;;5011795;28;20072;-42
2022/11/17 06:33:35;;;;;;;5.78;2.65;;;;;;;;;;5012207;28;20483;-42
2022/11/17 06:36:02;;;;;;;10.35;2.10;;;;;;;;;;5004105;28;20101;-41
2022/11/17 06:38:28;;;;;;;7.03;2.75;;;;;;;;;;5010211;28;20042;-42
2022/11/17 06:40:54;;;;;;;3.22;2.20;;;;;;;;;;5010869;28;20026;-41
2022/11/17 06:43:20;;;;;;;2.88;1.80;;;;;;;;;;5011350;28;20717;-42
2022/11/17 06:45:46;;;;;;;11.18;2.40;;;;;;;;;;5011784;28;20034;-42
2022/11/17 06:48:14;;;;;;;4.70;2.88;;;;;;;;;;5008260;28;20045;-42
2022/11/17 06:50:40;;;;;;;2.42;1.90;;;;;;;;;;5007737;28;20049;-42
2022/11/17 06:53:07;;;;;;;3.63;2.20;;;;;;;;;;5005325;28;20407;-42
2022/11/17 06:55:33;;;;;;;3.53;2.13;;;;;;;;;;5012414;28;20512;-42
2022/11/17 06:58:05;;;;;;;5.97;2.47;;;;;;;;;;5010969;28;20040;-42
2022/11/17 07:00:31;;;;;;;3.88;2.13;;;;;;;;;;5012295;28;20121;-42
2022/11/17 07:03:05;;;;;;;6.32;2.30;;;;;;;;;;5011428;28;20042;-42
2022/11/17 07:05:32;;;;;;;2.10;1.95;;;;;;;;;;5011832;28;20029;-47
2022/11/17 07:08:03;;;;;;;3.10;1.92;;;;;;;;;;5007295;28;20066;-42
2022/11/17 07:10:29;;;;;;;8.00;2.40;;;;;;;;;;4998157;28;20038;-42
2022/11/17 07:12:55;;;;;;;5.03;2.42;;;;;;;;;;5012788;28;20045;-42
2022/11/17 07:15:21;;;;;;;5.80;2.08;;;;;;;;;;5019250;28;20076;-42
2022/11/17 07:17:47;;;;;;;5.63;2.17;;;;;;;;;;5010869;28;20450;-42
2022/11/17 07:20:12;;;;;;;4.30;2.20;;;;;;;;;;5006333;28;20084;-46
2022/11/17 07:22:40;;;;;;;6.10;2.03;;;;;;;;;;5010964;28;20046;-43
2022/11/17 07:25:05;;;;;;;3.30;1.95;;;;;;;;;;5011330;28;20042;-44
2022/11/17 07:27:31;;;;;;;3.47;2.10;;;;;;;;;;5001624;28;20461;-46
2022/11/17 07:29:56;;;;;;;3.53;2.08;;;;;;;;;;5005557;28;20025;-44
2022/11/17 07:32:22;;;;;;;4.45;2.10;;;;;;;;;;5004804;28;20095;-45
2022/11/17 07:34:48;;;;;;;3.35;1.88;;;;;;;;;;5006928;28;20189;-43
2022/11/17 07:37:14;;;;;;;8.02;2.15;;;;;;;;;;5009799;28;20038;-42
2022/11/17 07:39:39;;;;;;;3.83;2.05;;;;;;;;;;5011016;28;20033;-46
2022/11/17 07:42:05;;;;;;;3.42;2.10;;;;;;;;;;5010896;28;20409;-46
2022/11/17 07:44:30;;;;;;;4.53;1.95;;;;;;;;;;4998940;28;20037;-48
2022/11/17 07:46:56;;;;;;;6.05;2.10;;;;;;;;;;5012433;28;20034;-42
2022/11/17 07:49:21;;;;;;;6.93;2.42;;;;;;;;;;5006822;28;20113;-48
2022/11/17 07:51:47;;;;;;;5.65;2.15;;;;;;;;;;5006633;28;20049;-42
2022/11/17 07:54:12;;;;;;;7.72;2.40;;;;;;;;;;5009254;28;20037;-42
2022/11/17 07:56:37;;;;;;;5.10;2.10;;;;;;;;;;5009223;28;20034;-42
2022/11/17 07:59:03;;;;;;;7.80;2.67;;;;;;;;;;5010742;28;20088;-45
2022/11/17 08:01:28;;;;;;;5.38;2.20;;;;;;;;;;5009221;28;20830;-42
2022/11/17 08:03:54;;;;;;;10.63;2.28;;;;;;;;;;5007458;28;20033;-42
2022/11/17 08:06:19;;;;;;;4.95;1.77;;;;;;;;;;5009624;28;20040;-42
2022/11/17 08:08:47;;;;;;;6.53;2.10;;;;;;;;;;5005625;28;20031;-40
2022/11/17 08:11:12;;;;;;;3.70;1.65;;;;;;;;;;4999808;28;20029;-41
2022/11/17 08:13:39;;;;;;;6.55;2.17;;;;;;;;;;5000270;28;20034;-42
2022/11/17 08:16:06;;;;;;;5.55;1.90;;;;;;;;;;5009245;28;20079;-41
2022/11/17 08:18:32;;;;;;;2.47;2.22;;;;;;;;;;5009781;28;20049;-40
2022/11/17 08:21:04;;;;;;;9.93;2.00;;;;;;;;;;5010066;28;20038;-40
2022/11/17 08:23:31;;;;;;;5.95;1.90;;;;;;;;;;5018876;28;20056;-41
2022/11/17 08:25:56;;;;;;;2.80;1.75;;;;;;;;;;5009974;28;20097;-41
2022/11/17 08:28:21;;;;;;;5.88;1.88;;;;;;;;;;5008398;28;20116;-40
2022/11/17 08:30:47;;;;;;;5.80;2.10;;;;;;;;;;5007383;28;20038;-41
2022/11/17 08:33:12;;;;;;;3.58;2.15;;;;;;;;;;5011553;28;20501;-40
2022/11/17 08:35:38;;;;;;;3.55;1.70;;;;;;;;;;5009627;28;20049;-40
2022/11/17 08:38:04;;;;;;;3.00;1.55;;;;;;;;;;5009606;28;20050;-41
2022/11/17 08:40:29;;;;;;;3.33;1.63;;;;;;;;;;5011647;28;20494;-40
2022/11/17 08:42:55;;;;;;;5.40;1.88;;;;;;;;;;5009332;28;20042;-41
2022/11/17 08:45:20;;;;;;;7.88;1.88;;;;;;;;;;5006148;28;20390;-40
2022/11/17 08:47:46;;;;;;;4.38;1.85;;;;;;;;;;5008492;28;20049;-40
2022/11/17 08:50:11;;;;;;;9.05;2.70;;;;;;;;;;5008418;28;20049;-44
2022/11/17 08:52:36;;;;;;;4.70;2.35;;;;;;;;;;5009546;28;20080;-41
2022/11/17 08:55:04;;;;;;;7.35;2.00;;;;;;;;;;5009541;28;20030;-40
2022/11/17 08:57:30;;;;;;;4.07;2.10;;;;;;;;;;5009419;28;20050;-40
2022/11/17 08:59:56;;;;;;;11.15;2.65;;;;;;;;;;5009935;28;20041;-44
2022/11/17 09:02:22;;;;;;;7.85;2.13;;;;;;;;;;5003665;28;20097;-40
2022/11/17 09:04:47;;;;;;;12.27;2.10;;;;;;;;;;5012563;28;20034;-41
2022/11/17 09:07:13;;;;;;;4.28;2.00;;;;;;;;;;5012792;28;20049;-41
2022/11/17 09:09:38;;;;;;;15.93;2.40;;;;;;;;;;5021068;28;20029;-41
2022/11/17 09:12:03;;;;;;;5.00;2.17;;;;;;;;;;5013327;28;20164;-40
2022/11/17 09:14:30;;;;;;;5.40;2.08;;;;;;;;;;5013270;28;20433;-40
2022/11/17 09:16:56;;;;;;;5.20;2.70;;;;;;;;;;4997563;28;20046;-42
2022/11/17 09:19:21;;;;;;;10.95;3.80;;;;;;;;;;5008397;28;20073;-40
2022/11/17 09:21:46;;;;;;;11.32;4.55;;;;;;;;;;5011983;28;20045;-43
2022/11/17 09:24:12;;;;;;;9.50;2.55;;;;;;;;;;5018720;28;20057;-41
2022/11/17 09:26:40;;;;;;;7.50;2.45;;;;;;;;;;5012646;28;20049;-41
2022/11/17 09:29:06;;;;;;;13.05;7.00;;;;;;;;;;5004660;28;20196;-41
2022/11/17 09:31:32;;;;;;;8.90;5.13;;;;;;;;;;5010790;28;20050;-41
2022/11/17 09:33:57;;;;;;;10.88;3.63;;;;;;;;;;5009076;28;20034;-41
2022/11/17 09:36:23;;;;;;;8.68;3.45;;;;;;;;;;5000013;28;20038;-40
2022/11/17 09:38:49;;;;;;;7.20;3.45;;;;;;;;;;5007612;28;20037;-42
2022/11/17 09:41:14;;;;;;;6.00;3.20;;;;;;;;;;5010404;28;20116;-41
2022/11/17 09:43:50;;;;;;;14.23;5.28;;;;;;;;;;5008800;28;20168;-41
2022/11/17 09:46:27;;;;;;;9.93;4.43;;;;;;;;;;5011876;28;20524;-41
2022/11/17 09:49:00;;;;;;;8.88;4.00;;;;;;;;;;5011220;28;20044;-40
2022/11/17 09:51:30;;;;;;;14.43;5.38;;;;;;;;;;5015000;28;20049;-41
2022/11/17 09:54:05;;;;;;;11.52;5.78;;;;;;;;;;5012517;28;20034;-40
2022/11/17 09:56:32;;;;;;;12.05;5.53;;;;;;;;;;5007517;28;20061;-43
2022/11/17 09:59:03;;;;;;;15.02;5.75;;;;;;;;;;5010886;28;20136;-42
2022/11/17 10:01:28;;;;;;;13.85;7.20;;;;;;;;;;5011968;28;20049;-42
2022/11/17 10:03:55;;;;;;;18.70;7.53;;;;;;;;;;5012033;28;20437;-41
2022/11/17 10:06:30;;;;;;;22.50;11.52;;;;;;;;;;5008499;28;20125;-41
2022/11/17 10:08:59;;;;;;;14.85;8.93;;;;;;;;;;5012050;28;20397;-41
2022/11/17 10:11:31;;;;;;;12.35;6.75;;;;;;;;;;5011746;28;20053;-40
2022/11/17 10:14:14;;;;;;;16.65;6.68;;;;;;;;;;5003165;28;20096;-43
2022/11/17 10:16:43;;;;;;;11.35;6.80;;;;;;;;;;5002995;28;20062;-43
2022/11/17 10:19:19;;;;;;;16.02;7.60;;;;;;;;;;5011978;28;20517;-41
2022/11/17 10:21:48;;;;;;;12.68;6.75;;;;;;;;;;5002192;28;20568;-41
2022/11/17 10:24:42;;;;;;;13.77;7.07;;;;;;;;;;5012427;28;20029;-41
2022/11/17 10:27:16;;;;;;;17.67;7.43;;;;;;;;;;5015135;28;20125;-41
2022/11/17 10:30:06;;;;;;;14.38;5.15;;;;;;;;;;5007711;28;20038;-40
2022/11/17 10:32:37;;;;;;;8.27;4.13;;;;;;;;;;5008165;28;20046;-40
2022/11/17 10:35:12;;;;;;;12.10;4.85;;;;;;;;;;5011240;28;20030;-41
2022/11/17 10:37:41;;;;;;;5.03;3.80;;;;;;;;;;5011309;28;20041;-41
2022/11/17 10:40:23;;;;;;;8.35;4.53;;;;;;;;;;5014525;28;20033;-41
2022/11/17 10:43:03;;;;;;;18.83;5.15;;;;;;;;;;5005953;28;20038;-40
2022/11/17 10:45:29;;;;;;;18.90;8.75;;;;;;;;;;5010664;28;20478;-42
2022/11/17 10:48:20;;;;;;;12.73;5.57;;;;;;;;;;5010699;28;20050;-41
2022/11/17 10:50:58;;;;;;;9.10;3.67;;;;;;;;;;5000302;28;20048;-41
2022/11/17 10:53:27;;;;;;;12.52;4.68;;;;;;;;;;5005789;28;20038;-45
2022/11/17 10:56:03;;;;;;;9.27;4.38;;;;;;;;;;5007089;28;20506;-43
2022/11/17 10:58:31;;;;;;;10.90;4.25;;;;;;;;;;5008899;28;20092;-44
2022/11/17 11:01:01;;;;;;;10.02;5.57;;;;;;;;;;5010683;28;20022;-47
2022/11/17 11:03:32;;;;;;;9.00;4.53;;;;;;;;;;5006205;28;20041;-44
2022/11/17 11:06:05;;;;;;;10.97;6.13;;;;;;;;;;5009157;28;20025;-45
2022/11/17 11:08:46;;;;;;;8.60;3.88;;;;;;;;;;5002885;28;20048;-43
2022/11/17 11:11:20;;;;;;;7.50;2.05;;;;;;;;;;5002478;28;20030;-44
2022/11/17 11:13:52;;;;;;;6.43;1.65;;;;;;;;;;5012293;28;20026;-44
2022/11/17 11:16:17;;;;;;;6.20;2.10;;;;;;;;;;5003980;28;20025;-46
2022/11/17 11:18:43;;;;;;;7.30;1.90;;;;;;;;;;5011032;28;20044;-43
2022/11/17 11:21:34;;;;;;;3.60;1.92;;;;;;;;;;5002300;28;20039;-44
2022/11/17 11:24:29;;;;;;;5.22;2.00;;;;;;;;;;4997138;28;20030;-44
2022/11/17 11:27:19;;;;;;;6.07;2.10;;;;;;;;;;4998720;28;20046;-44
2022/11/17 11:29:55;;;;;;;5.75;1.80;;;;;;;;;;5007696;28;20068;-44
2022/11/17 11:32:39;;;;;;;7.75;2.03;;;;;;;;;;5009627;28;20147;-43
2022/11/17 11:35:33;;;;;;;4.88;1.83;;;;;;;;;;5000604;28;20121;-43
2022/11/17 11:38:18;;;;;;;7.30;2.28;;;;;;;;;;5006754;28;20038;-43
2022/11/17 11:41:04;;;;;;;3.22;1.33;;;;;;;;;;5008870;28;20029;-44
2022/11/17 11:44:10;;;;;;;5.55;2.75;;;;;;;;;;4993416;28;20042;-44
2022/11/17 11:47:05;;;;;;;5.28;2.05;;;;;;;;;;4982801;28;20046;-46
2022/11/17 11:49:35;;;;;;;7.78;1.92;;;;;;;;;;4973102;28;20034;-45
2022/11/17 11:52:05;;;;;;;5.82;1.60;;;;;;;;;;4977583;28;20049;-44
2022/11/17 11:54:33;;;;;;;8.32;1.80;;;;;;;;;;4982551;28;20037;-42
2022/11/17 11:56:59;;;;;;;4.38;1.40;;;;;;;;;;4988687;28;20498;-44
2022/11/17 11:59:27;;;;;;;9.57;2.10;;;;;;;;;;4963911;28;20050;-43
2022/11/17 12:02:11;;;;;;;9.32;1.75;;;;;;;;;;4992266;28;20123;-43
2022/11/17 12:04:46;;;;;;;6.38;2.13;;;;;;;;;;4992060;28;20129;-42
2022/11/17 12:07:42;;;;;;;8.77;2.28;;;;;;;;;;5002180;28;20048;-42
2022/11/17 12:10:16;;;;;;;4.38;1.70;;;;;;;;;;5006320;28;20034;-43
2022/11/17 12:12:44;;;;;;;7.93;1.60;;;;;;;;;;5003748;28;20073;-42
2022/11/17 12:15:18;;;;;;;5.75;1.85;;;;;;;;;;5005898;28;20030;-42
2022/11/17 12:18:12;;;;;;;4.63;2.13;;;;;;;;;;4997763;28;20048;-43
2022/11/17 12:20:37;;;;;;;9.00;2.00;;;;;;;;;;5000441;28;20045;-44
2022/11/17 12:23:33;;;;;;;3.72;1.95;;;;;;;;;;4993702;28;20045;-44
2022/11/17 12:26:00;;;;;;;5.13;1.90;;;;;;;;;;5002188;28;20106;-45
2022/11/17 12:28:39;;;;;;;4.72;1.95;;;;;;;;;;5000195;28;20457;-43
2022/11/17 12:31:09;;;;;;;5.07;1.85;;;;;;;;;;5006609;28;20378;-41
2022/11/17 12:33:52;;;;;;;4.60;1.83;;;;;;;;;;5006256;28;20038;-41
2022/11/17 12:36:30;;;;;;;7.57;2.15;;;;;;;;;;4998232;28;20022;-45
2022/11/17 12:38:57;;;;;;;14.50;1.95;;;;;;;;;;5009065;28;20072;-42
2022/11/17 12:41:46;;;;;;;3.42;1.67;;;;;;;;;;5003050;28;20092;-43
2022/11/17 12:44:30;;;;;;;11.52;2.78;;;;;;;;;;5007905;28;20041;-43
2022/11/17 12:47:08;;;;;;;6.13;1.90;;;;;;;;;;5005818;28;20037;-43
2022/11/17 12:49:50;;;;;;;7.57;2.15;;;;;;;;;;5005347;28;20040;-44
2022/11/17 12:52:24;;;;;;;6.55;2.22;;;;;;;;;;5001903;28;20062;-45
2022/11/17 12:55:16;;;;;;;6.35;1.85;;;;;;;;;;5006046;28;20083;-41
2022/11/17 12:57:44;;;;;;;6.88;2.50;;;;;;;;;;5005978;28;20034;-44
2022/11/17 13:00:21;;;;;;;9.30;2.58;;;;;;;;;;5006402;28;20034;-43
2022/11/17 13:03:03;;;;;;;6.93;2.65;;;;;;;;;;4996534;28;20172;-45
2022/11/17 13:05:29;;;;;;;7.82;2.70;;;;;;;;;;5011470;28;20029;-42
2022/11/17 13:08:12;;;;;;;6.85;2.33;;;;;;;;;;5009390;28;20099;-41
2022/11/17 13:10:38;;;;;;;10.50;2.38;;;;;;;;;;4998906;28;20042;-42
2022/11/17 13:13:20;;;;;;;6.63;2.42;;;;;;;;;;5000649;28;20054;-45
2022/11/17 13:16:04;;;;;;;8.32;2.72;;;;;;;;;;5009681;28;20153;-45
2022/11/17 13:18:35;;;;;;;5.88;2.33;;;;;;;;;;5012550;28;20064;-42
2022/11/17 13:21:01;;;;;;;10.18;2.28;;;;;;;;;;5010161;28;20030;-41
2022/11/17 13:23:31;;;;;;;6.22;2.45;;;;;;;;;;5012362;28;20379;-42
2022/11/17 13:26:10;;;;;;;14.23;2.83;;;;;;;;;;5003875;28;20385;-43
2022/11/17 13:28:36;;;;;;;8.82;2.53;;;;;;;;;;5008425;28;20045;-43
2022/11/17 13:31:01;;;;;;;7.43;2.40;;;;;;;;;;5000957;28;20049;-44
2022/11/17 13:33:27;;;;;;;10.57;2.90;;;;;;;;;;5010158;28;20045;-42
2022/11/17 13:36:06;;;;;;;10.27;3.03;;;;;;;;;;5010550;28;20033;-41
2022/11/17 13:38:31;;;;;;;12.60;2.50;;;;;;;;;;5007493;28;20041;-41
2022/11/17 13:40:57;;;;;;;6.90;2.33;;;;;;;;;;5009904;28;20038;-44
2022/11/17 13:43:24;;;;;;;9.85;2.42;;;;;;;;;;5002830;28;20049;-42
2022/11/17 13:45:51;;;;;;;13.85;2.55;;;;;;;;;;5005181;28;20037;-44
2022/11/17 13:48:37;;;;;;;8.50;2.40;;;;;;;;;;4995050;28;20542;-41
2022/11/17 13:51:24;;;;;;;7.53;2.20;;;;;;;;;;5000756;28;20026;-41
2022/11/17 13:53:57;;;;;;;4.53;2.08;;;;;;;;;;5006444;28;20714;-41
2022/11/17 13:56:23;;;;;;;9.57;2.72;;;;;;;;;;5004665;28;20516;-42
2022/11/17 13:58:50;;;;;;;10.55;2.45;;;;;;;;;;5004636;28;20035;-42
2022/11/17 14:01:26;;;;;;;9.13;1.98;;;;;;;;;;5001849;28;20034;-41
2022/11/17 14:03:52;;;;;;;10.13;2.53;;;;;;;;;;5005568;28;20383;-42
2022/11/17 14:06:17;;;;;;;5.43;2.60;;;;;;;;;;5002895;28;20037;-42
2022/11/17 14:09:01;;;;;;;10.52;2.97;;;;;;;;;;5002293;28;20073;-42
2022/11/17 14:11:26;;;;;;;9.93;2.45;;;;;;;;;;5001986;28;20054;-41
2022/11/17 14:13:57;;;;;;;8.23;3.08;;;;;;;;;;5011178;28;20030;-44
2022/11/17 14:16:40;;;;;;;11.02;3.22;;;;;;;;;;5010262;28;20065;-48
2022/11/17 14:19:14;;;;;;;13.68;3.05;;;;;;;;;;5003966;28;20537;-45
2022/11/17 14:22:20;;;;;;;9.43;2.85;;;;;;;;;;5012048;28;20096;-42
2022/11/17 14:24:45;;;;;;;8.55;2.45;;;;;;;;;;5005056;28;20111;-41
2022/11/17 14:27:33;;;;;;;8.50;2.80;;;;;;;;;;5000330;28;20754;-41
2022/11/17 14:29:59;;;;;;;6.80;2.47;;;;;;;;;;5007117;28;20026;-42
2022/11/17 14:32:24;;;;;;;8.65;3.10;;;;;;;;;;5009112;28;20146;-41
2022/11/17 14:34:50;;;;;;;17.30;3.35;;;;;;;;;;4995010;28;20125;-41
2022/11/17 14:37:16;;;;;;;14.13;3.25;;;;;;;;;;5011934;28;20046;-41
2022/11/17 14:39:41;;;;;;;10.35;2.97;;;;;;;;;;4999208;28;20026;-42
2022/11/17 14:42:09;;;;;;;11.68;2.75;;;;;;;;;;5006181;28;20037;-41
2022/11/17 14:44:35;;;;;;;13.43;3.28;;;;;;;;;;5002951;28;20113;-41
2022/11/17 14:47:00;;;;;;;10.98;2.83;;;;;;;;;;5011512;28;20047;-41
2022/11/17 14:49:25;;;;;;;12.77;3.20;;;;;;;;;;5001856;28;20030;-42
2022/11/17 14:51:52;;;;;;;16.20;2.90;;;;;;;;;;5012662;28;20030;-42
2022/11/17 14:54:17;;;;;;;9.52;2.78;;;;;;;;;;4997447;28;20027;-41
2022/11/17 14:56:42;;;;;;;9.68;2.92;;;;;;;;;;4999708;28;20041;-47
2022/11/17 14:59:09;;;;;;;10.23;2.97;;;;;;;;;;5006049;28;20168;-44
2022/11/17 15:01:37;;;;;;;10.77;3.47;;;;;;;;;;5001617;28;20046;-43
2022/11/17 15:04:04;;;;;;;15.00;3.40;;;;;;;;;;5007118;28;20040;-43
2022/11/17 15:06:29;;;;;;;9.40;3.88;;;;;;;;;;5010374;28;20401;-43
2022/11/17 15:09:00;;;;;;;9.45;3.05;;;;;;;;;;5010367;28;20034;-43
2022/11/17 15:11:28;;;;;;;9.30;2.88;;;;;;;;;;5004387;28;20046;-43
2022/11/17 15:13:53;;;;;;;11.77;3.28;;;;;;;;;;5001723;28;20085;-45
2022/11/17 15:16:19;;;;;;;11.70;3.17;;;;;;;;;;4994222;28;20404;-43
2022/11/17 15:18:46;;;;;;;8.52;2.92;;;;;;;;;;4999530;28;20421;-43
2022/11/17 15:21:13;;;;;;;5.40;2.80;;;;;;;;;;4995924;28;20029;-43
2022/11/17 15:23:39;;;;;;;8.55;3.17;;;;;;;;;;4998164;28;20602;-43
2022/11/17 15:26:11;;;;;;;11.20;3.60;;;;;;;;;;4994151;28;20208;-41